createdAt,value
2019-01-23T00:01:31.505Z,91.90
2019-01-23T00:06:36.060Z,92.00
2019-01-23T00:11:40.645Z,91.80
2019-01-23T00:16:45.227Z,91.80
2019-01-23T00:21:49.838Z,91.80
2019-01-23T00:26:54.435Z,91.80
2019-01-23T00:31:59.929Z,91.70
2019-01-23T00:37:04.661Z,91.70
2019-01-23T00:42:09.274Z,91.80
2019-01-23T00:47:13.794Z,91.80
2019-01-23T00:52:18.314Z,91.60
2019-01-23T00:57:22.927Z,91.60
2019-01-23T01:02:27.526Z,91.60
2019-01-23T01:07:32.158Z,91.60
2019-01-23T01:12:36.767Z,91.60
2019-01-23T01:17:41.354Z,91.50
2019-01-23T01:22:45.928Z,91.50
2019-01-23T01:27:50.469Z,91.30
2019-01-23T01:32:55.053Z,91.30
2019-01-23T01:37:59.625Z,91.30
2019-01-23T01:43:04.205Z,91.20
2019-01-23T01:48:08.819Z,91.20
2019-01-23T01:53:13.398Z,91.20
2019-01-23T01:58:17.958Z,91.20
2019-01-23T02:03:22.566Z,91.10
2019-01-23T02:08:27.137Z,91.10
2019-01-23T02:13:31.676Z,91.10
2019-01-23T02:18:36.185Z,91.10
2019-01-23T02:23:40.754Z,91.10
2019-01-23T02:28:45.264Z,91.10
2019-01-23T02:33:49.870Z,91.10
2019-01-23T02:38:54.376Z,91.10
2019-01-23T02:43:58.993Z,91.10
2019-01-23T02:49:03.586Z,90.90
2019-01-23T02:54:08.177Z,91.00
2019-01-23T02:59:17.315Z,91.00
2019-01-23T03:04:18.935Z,91.00
2019-01-23T03:09:23.491Z,91.00
2019-01-23T03:14:28.110Z,91.10
2019-01-23T03:19:32.807Z,91.10
2019-01-23T03:24:37.365Z,91.00
2019-01-23T03:29:41.954Z,90.90
2019-01-23T03:34:46.582Z,91.00
2019-01-23T03:39:51.294Z,90.90
2019-01-23T03:44:55.911Z,90.90
2019-01-23T03:50:00.487Z,90.80
2019-01-23T03:55:06.183Z,90.80
2019-01-23T04:00:13.588Z,90.90
2019-01-23T04:05:18.182Z,90.80
2019-01-23T04:10:22.736Z,90.80
2019-01-23T04:15:27.305Z,90.80
2019-01-23T04:20:31.866Z,90.80
2019-01-23T04:25:36.447Z,91.20
2019-01-23T04:30:41.061Z,90.90
2019-01-23T04:35:45.619Z,90.80
2019-01-23T04:40:50.140Z,90.80
2019-01-23T04:45:54.706Z,90.90
2019-01-23T04:51:21.046Z,90.90
2019-01-23T04:56:25.624Z,90.90
2019-01-23T05:01:30.292Z,90.90
2019-01-23T05:06:34.803Z,91.30
2019-01-23T05:11:39.392Z,90.90
2019-01-23T05:16:43.899Z,91.00
2019-01-23T05:21:48.477Z,91.00
2019-01-23T05:26:53.060Z,91.10
2019-01-23T05:31:57.702Z,91.00
2019-01-23T05:37:02.298Z,91.00
2019-01-23T05:42:06.880Z,90.90
2019-01-23T05:47:12.706Z,90.90
2019-01-23T05:52:17.318Z,91.00
2019-01-23T05:57:21.888Z,91.00
2019-01-23T06:02:26.414Z,90.90
2019-01-23T06:07:31.027Z,91.00
2019-01-23T06:12:35.599Z,91.00
2019-01-23T06:17:40.455Z,90.90
2019-01-23T06:22:45.013Z,90.90
2019-01-23T06:27:49.510Z,91.00
2019-01-23T06:32:55.247Z,91.00
2019-01-23T06:37:59.862Z,91.00
2019-01-23T06:43:04.404Z,91.10
2019-01-23T06:48:08.999Z,91.10
2019-01-23T06:53:14.090Z,91.10
2019-01-23T06:58:18.878Z,91.00
2019-01-23T07:03:23.479Z,91.10
2019-01-23T07:08:28.046Z,91.10
2019-01-23T07:13:32.663Z,91.10
2019-01-23T07:18:37.231Z,91.00
2019-01-23T07:23:41.845Z,90.90
2019-01-23T07:28:49.283Z,90.80
2019-01-23T07:33:52.648Z,90.80
2019-01-23T07:38:57.374Z,90.90
2019-01-23T07:44:01.955Z,90.80
2019-01-23T07:49:06.572Z,90.80
2019-01-23T07:54:11.168Z,91.00
2019-01-23T07:59:15.768Z,91.10
2019-01-23T08:04:20.357Z,90.50
2019-01-23T08:09:24.952Z,90.50
2019-01-23T08:14:29.552Z,90.60
2019-01-23T08:19:34.188Z,90.60
2019-01-23T08:24:38.870Z,90.70
2019-01-23T08:29:43.478Z,90.50
2019-01-23T08:34:48.127Z,90.60
2019-01-23T08:39:52.726Z,90.80
2019-01-23T08:44:57.305Z,90.40
2019-01-23T08:50:01.960Z,90.50
2019-01-23T08:55:06.701Z,90.50
2019-01-23T09:00:11.339Z,90.40
2019-01-23T09:05:16.052Z,90.30
2019-01-23T09:10:21.818Z,90.40
2019-01-23T09:15:26.389Z,90.30
2019-01-23T09:20:30.943Z,90.20
2019-01-23T09:25:35.536Z,90.10
2019-01-23T09:31:24.043Z,90.20
2019-01-23T09:36:57.752Z,90.10
2019-01-23T09:42:27.785Z,90.00
2019-01-23T09:48:00.614Z,89.90
2019-01-23T09:53:38.607Z,89.80
2019-01-23T09:58:43.215Z,89.80
2019-01-23T10:03:47.808Z,89.80
2019-01-23T10:08:52.525Z,89.60
2019-01-23T10:13:57.094Z,89.40
2019-01-23T10:19:01.688Z,89.30
2019-01-23T10:24:06.259Z,89.30
2019-01-23T10:29:10.781Z,88.90
2019-01-23T10:34:15.385Z,89.10
2019-01-23T10:39:19.980Z,89.20
2019-01-23T10:44:24.613Z,89.10
2019-01-23T10:49:29.214Z,89.10
2019-01-23T10:54:33.790Z,89.10
2019-01-23T10:59:38.395Z,89.20
2019-01-23T11:04:42.980Z,89.20
2019-01-23T11:09:47.583Z,89.20
2019-01-23T11:14:52.215Z,89.10
2019-01-23T11:19:56.790Z,89.20
2019-01-23T11:25:01.376Z,89.10
2019-01-23T11:30:08.661Z,89.20
2019-01-23T11:35:13.464Z,89.00
2019-01-23T11:40:23.703Z,89.10
2019-01-23T11:45:28.518Z,89.00
2019-01-23T11:50:33.136Z,89.30
2019-01-23T11:55:37.760Z,89.30
2019-01-23T12:00:42.580Z,89.20
2019-01-23T12:05:47.206Z,89.30
2019-01-23T12:10:51.802Z,89.00
2019-01-23T12:15:56.431Z,89.70
2019-01-23T12:21:01.113Z,89.00
2019-01-23T12:26:05.906Z,89.10
2019-01-23T12:31:10.512Z,88.80
2019-01-23T12:36:15.179Z,88.60
2019-01-23T12:41:19.828Z,88.60
2019-01-23T12:46:24.461Z,88.10
2019-01-23T12:51:29.047Z,88.10
2019-01-23T12:56:34.447Z,88.20
2019-01-23T13:01:42.095Z,88.20
2019-01-23T13:06:45.390Z,88.10
2019-01-23T13:11:49.990Z,88.20
2019-01-23T13:16:54.610Z,88.20
2019-01-23T13:21:59.195Z,88.10
2019-01-23T13:27:03.918Z,88.00
2019-01-23T13:32:08.561Z,88.00
2019-01-23T13:37:13.195Z,88.10
2019-01-23T13:42:17.809Z,88.30
2019-01-23T13:47:22.368Z,87.90
2019-01-23T13:52:27.045Z,87.90
2019-01-23T13:57:31.686Z,87.90
2019-01-23T14:02:36.197Z,87.90
2019-01-23T14:07:40.849Z,88.10
2019-01-23T14:12:45.474Z,88.10
2019-01-23T14:17:50.093Z,88.70
2019-01-23T14:22:54.720Z,88.80
2019-01-23T14:27:59.300Z,88.00
2019-01-23T14:33:04.122Z,88.10
2019-01-23T14:38:08.747Z,88.40
2019-01-23T14:43:13.395Z,88.20
2019-01-23T14:48:17.969Z,88.20
2019-01-23T14:53:22.594Z,88.20
2019-01-23T14:58:27.233Z,88.10
2019-01-23T15:03:31.757Z,88.30
2019-01-23T15:08:36.377Z,88.40
2019-01-23T15:13:40.965Z,88.80
2019-01-23T15:18:45.585Z,88.60
2019-01-23T15:23:50.160Z,88.60
2019-01-23T15:28:54.760Z,88.70
2019-01-23T15:33:59.387Z,88.50
2019-01-23T15:39:05.371Z,88.60
2019-01-23T15:44:09.986Z,88.60
2019-01-23T15:49:14.582Z,88.70
2019-01-23T15:54:19.151Z,88.60
2019-01-23T15:59:23.750Z,89.00
2019-01-23T16:04:28.282Z,89.00
2019-01-23T16:09:32.896Z,89.10
2019-01-23T16:14:38.128Z,89.00
2019-01-23T16:19:42.727Z,89.10
2019-01-23T16:24:47.369Z,88.70
2019-01-23T16:29:52.007Z,88.90
2019-01-23T16:34:56.623Z,89.00
2019-01-23T16:40:01.265Z,89.00
2019-01-23T16:45:07.334Z,89.10
2019-01-23T16:50:17.348Z,89.10
2019-01-23T16:55:21.950Z,89.10
2019-01-23T17:00:27.109Z,88.90
2019-01-23T17:05:32.799Z,88.90
2019-01-23T17:10:37.524Z,88.80
2019-01-23T17:15:42.173Z,89.00
2019-01-23T17:20:48.994Z,89.20
2019-01-23T17:25:53.634Z,89.10
2019-01-23T17:30:58.153Z,89.00
2019-01-23T17:36:02.793Z,89.10
2019-01-23T17:41:07.503Z,89.40
2019-01-23T17:46:12.053Z,89.40
2019-01-23T17:51:16.647Z,89.50
2019-01-23T17:56:21.266Z,89.70
2019-01-23T18:01:25.883Z,89.90
2019-01-23T18:06:30.534Z,90.00
2019-01-23T18:11:35.122Z,89.50
2019-01-23T18:16:39.808Z,89.70
2019-01-23T18:21:44.585Z,89.80
2019-01-23T18:26:49.314Z,90.20
2019-01-23T18:32:03.298Z,90.10
2019-01-23T18:37:39.751Z,90.00
2019-01-23T18:43:40.190Z,90.00
2019-01-23T18:49:20.735Z,90.00
2019-01-23T18:54:25.357Z,90.00
2019-01-23T18:59:29.993Z,90.00
2019-01-23T19:04:34.687Z,90.00
2019-01-23T19:09:39.358Z,90.00
2019-01-23T19:14:44.115Z,90.00
2019-01-23T19:19:48.733Z,90.00
2019-01-23T19:24:53.795Z,90.00
2019-01-23T19:29:58.419Z,90.10
2019-01-23T19:35:03.011Z,90.00
2019-01-23T19:40:08.543Z,90.00
2019-01-23T19:45:16.638Z,90.00
2019-01-23T19:50:21.244Z,90.10
2019-01-23T19:55:25.959Z,90.30
2019-01-23T20:00:30.666Z,90.10
2019-01-23T20:05:35.325Z,90.20
2019-01-23T20:10:40.052Z,90.20
2019-01-23T20:15:44.691Z,90.10
2019-01-23T20:20:49.312Z,90.10
2019-01-23T20:25:53.931Z,90.00
2019-01-23T20:30:58.566Z,90.00
2019-01-23T20:36:03.200Z,90.00
2019-01-23T20:41:07.952Z,89.80
2019-01-23T20:46:12.656Z,89.90
2019-01-23T20:51:17.315Z,90.00
2019-01-23T20:56:21.979Z,90.00
2019-01-23T21:01:26.587Z,90.00
2019-01-23T21:06:31.230Z,90.00
2019-01-23T21:11:35.891Z,90.00
2019-01-23T21:16:40.481Z,90.00
2019-01-23T21:21:45.028Z,90.20
2019-01-23T21:26:49.660Z,90.20
2019-01-23T21:31:54.306Z,90.30
2019-01-23T21:36:59.065Z,90.30
2019-01-23T21:42:03.765Z,90.30
2019-01-23T21:47:08.402Z,90.30
2019-01-23T21:52:13.008Z,90.10
2019-01-23T21:57:17.661Z,90.20
2019-01-23T22:02:22.287Z,90.20
2019-01-23T22:07:27.126Z,90.20
2019-01-23T22:12:31.968Z,90.50
2019-01-23T22:17:36.593Z,90.50
2019-01-23T22:22:41.305Z,90.50
2019-01-23T22:27:45.892Z,90.40
2019-01-23T22:32:50.724Z,90.80
2019-01-23T22:37:55.266Z,90.60
2019-01-23T22:43:00.003Z,90.70
2019-01-23T22:48:05.251Z,90.60
2019-01-23T22:53:09.935Z,90.50
2019-01-23T22:58:14.578Z,90.50
2019-01-23T23:03:20.898Z,90.40
2019-01-23T23:08:25.532Z,90.40
2019-01-23T23:13:30.100Z,90.30
2019-01-23T23:18:34.687Z,90.40
2019-01-23T23:23:42.298Z,90.50
2019-01-23T23:28:47.134Z,90.40
2019-01-23T23:33:51.841Z,90.50
2019-01-23T23:38:56.492Z,90.20
2019-01-23T23:44:01.041Z,90.20
2019-01-23T23:49:05.643Z,90.40
2019-01-23T23:54:10.187Z,90.90
2019-01-23T23:59:14.715Z,90.40
